Time;durP1;ratioP1;P1;durP2;ratioP2;P2;SDS_P1;SDS_P2;PMS_P1;PMS_P2;Temp;Humidity;BMP_temperature;BMP_pressure;BME280_temperature;BME280_humidity;BME280_pressure;Samples;Min_cycle;Max_cycle;Signal;HPM_P1;HPM_P2
2021/08/25 00:00:12;;;;;;;0.40;0.20;;;13.20;1.40;;;;;;646549;216;31508;-72
2021/08/25 00:02:53;;;;;;;0.40;0.20;;;13.20;1.40;;;;;;645040;212;31509;-71
2021/08/25 00:08:08;;;;;;;0.60;0.50;;;13.20;1.40;;;;;;645866;216;31472;-72
2021/08/25 00:10:49;;;;;;;0.40;0.20;;;13.20;1.40;;;;;;646569;216;31490;-70
2021/08/25 00:13:30;;;;;;;0.40;0.20;;;13.20;1.40;;;;;;647083;212;31469;-71
2021/08/25 00:16:11;;;;;;;0.40;0.30;;;13.20;1.40;;;;;;647053;212;31529;-71
2021/08/25 00:18:52;;;;;;;0.60;0.60;;;13.20;1.40;;;;;;645717;212;31476;-70
2021/08/25 00:21:33;;;;;;;0.40;0.30;;;13.20;1.40;;;;;;645536;216;31472;-71
2021/08/25 00:24:15;;;;;;;0.40;0.20;;;13.20;1.40;;;;;;646990;216;31667;-72
2021/08/25 00:26:55;;;;;;;0.40;0.40;;;13.20;1.40;;;;;;647391;216;31562;-70
2021/08/25 00:29:38;;;;;;;0.40;0.20;;;13.20;1.40;;;;;;645995;212;31543;-72
2021/08/25 00:32:19;;;;;;;0.40;0.23;;;13.20;1.40;;;;;;645853;212;31481;-71
2021/08/25 00:35:51;;;;;;;0.40;0.30;;;13.20;1.40;;;14.00;100.00;95927.39;645105;212;31477;-71
2021/08/25 00:38:33;;;;;;;0.40;0.20;;;13.20;1.40;;;14.03;100.00;95929.03;647262;212;31443;-72
2021/08/25 00:41:15;;;;;;;0.40;0.22;;;13.20;1.40;;;14.07;100.00;95927.99;638352;216;31645;-72
2021/08/25 00:43:57;;;;;;;0.40;0.40;;;13.20;1.40;;;14.20;100.00;95923.08;646547;216;42112;-72
2021/08/25 00:46:42;;;;;;;0.40;0.20;;;13.20;1.40;;;14.32;100.00;95931.78;646505;216;42172;-72
2021/08/25 00:49:23;;;;;;;0.40;0.20;;;13.20;1.40;;;14.24;100.00;95933.86;646779;216;31476;-73
2021/08/25 00:52:08;;;;;;;0.40;0.30;;;13.20;1.40;;;14.38;100.00;95934.37;644988;212;42260;-71
2021/08/25 00:54:50;;;;;;;0.50;0.20;;;13.20;1.40;;;14.47;100.00;95931.16;647110;213;42118;-72
2021/08/25 00:57:31;;;;;;;0.40;0.30;;;13.20;1.40;;;14.34;100.00;95925.98;646821;212;31502;-71
2021/08/25 01:00:14;;;;;;;0.40;0.20;;;13.20;1.40;;;14.44;100.00;95930.57;643582;216;40900;-71
2021/08/25 01:05:48;;;;;;;0.40;0.20;;;13.20;1.40;;;14.43;100.00;95935.82;646236;212;31486;-71
2021/08/25 01:08:33;;;;;;;0.40;0.20;;;13.20;1.40;;;14.57;100.00;95932.20;618097;222;33261;-71
2021/08/25 01:13:49;;;;;;;0.50;0.30;;;13.30;1.40;;;14.58;100.00;95931.29;618299;225;32123;-71
2021/08/25 01:16:31;;;;;;;0.40;0.30;;;13.30;1.40;;;14.50;100.00;95932.38;646404;216;31538;-70
2021/08/25 01:19:16;;;;;;;0.40;0.30;;;13.20;1.40;;;14.52;100.00;95935.41;643056;217;31516;-70
2021/08/25 01:21:58;;;;;;;0.40;0.20;;;13.20;1.40;;;14.58;100.00;95934.41;645287;216;31485;-71
2021/08/25 01:24:39;;;;;;;0.50;0.30;;;13.20;1.40;;;14.53;100.00;95928.92;645562;216;31489;-71
2021/08/25 01:27:21;;;;;;;0.40;0.30;;;13.20;1.40;;;14.49;100.00;95928.26;646829;216;31465;-71
2021/08/25 01:30:03;;;;;;;0.40;0.20;;;13.20;1.40;;;14.40;100.00;95925.77;646587;213;31619;-72
2021/08/25 01:32:45;;;;;;;0.40;0.30;;;13.10;1.40;;;14.50;100.00;95922.39;646157;216;31473;-70
2021/08/25 01:35:52;;;;;;;0.40;0.20;;;13.10;1.40;;;14.49;100.00;95921.16;646688;216;31511;-71
2021/08/25 01:38:45;;;;;;;0.40;0.30;;;13.10;1.40;;;14.46;100.00;95920.70;645570;212;31525;-71
2021/08/25 01:41:27;;;;;;;0.40;0.20;;;13.10;1.40;;;14.39;100.00;95913.63;637219;212;31666;-71
2021/08/25 01:44:09;;;;;;;0.40;0.30;;;13.00;1.40;;;14.54;100.00;95907.78;647450;216;31501;-70
2021/08/25 01:46:50;;;;;;;0.40;0.23;;;13.00;1.40;;;14.42;100.00;95909.05;645771;216;31489;-71
2021/08/25 01:49:35;;;;;;;0.40;0.30;;;13.00;1.40;;;14.48;100.00;95907.58;646542;216;31552;-71
2021/08/25 01:52:17;;;;;;;0.40;0.30;;;13.00;1.40;;;14.42;100.00;95902.98;646011;213;31493;-71
2021/08/25 01:54:58;;;;;;;0.60;0.40;;;13.00;1.40;;;14.42;100.00;95903.66;645375;216;42115;-71
2021/08/25 01:57:40;;;;;;;0.40;0.20;;;13.00;1.40;;;14.39;100.00;95900.46;646945;216;31630;-71
2021/08/25 02:00:22;;;;;;;0.40;0.30;;;12.90;1.40;;;14.26;100.00;95898.75;645547;212;31516;-70
2021/08/25 02:05:38;;;;;;;0.40;0.20;;;12.90;1.40;;;14.25;100.00;95889.41;646792;216;31551;-72
2021/08/25 02:08:22;;;;;;;0.65;0.65;;;12.80;1.40;;;14.18;100.00;95887.08;645972;216;31510;-71
2021/08/25 02:11:04;;;;;;;0.60;0.40;;;12.80;1.40;;;14.24;100.00;95883.70;646276;216;31593;-70
2021/08/25 02:13:46;;;;;;;0.43;0.40;;;12.70;1.40;;;14.22;100.00;95877.10;646393;212;31522;-70
2021/08/25 02:16:28;;;;;;;0.40;0.30;;;12.60;1.40;;;14.11;100.00;95877.70;618789;225;31814;-71
2021/08/25 02:19:09;;;;;;;0.40;0.28;;;12.60;1.40;;;13.94;100.00;95870.48;647667;216;31458;-71
2021/08/25 02:21:54;;;;;;;0.40;0.30;;;12.40;1.40;;;13.72;100.00;95866.14;646540;212;42115;-71
2021/08/25 02:24:35;;;;;;;0.40;0.30;;;12.30;1.40;;;13.63;100.00;95857.08;646062;216;31478;-71
2021/08/25 02:27:17;;;;;;;0.40;0.20;;;12.10;1.40;;;13.46;100.00;95857.89;646372;216;31468;-72
2021/08/25 02:29:59;;;;;;;0.40;0.20;;;12.00;1.40;;;13.36;100.00;95854.86;645813;212;42108;-71
2021/08/25 02:32:42;;;;;;;0.40;0.30;;;11.80;1.40;;;13.18;100.00;95844.34;646373;216;42090;-70
2021/08/25 02:35:54;;;;;;;0.40;0.20;;;11.70;1.40;;;13.00;100.00;95837.94;646245;216;31524;-71
2021/08/25 02:38:35;;;;;;;0.40;0.22;;;11.50;1.40;;;12.94;100.00;95836.56;646182;216;32424;-72
2021/08/25 02:41:17;;;;;;;0.40;0.20;;;11.50;1.40;;;12.90;100.00;95834.77;611550;222;32354;-72
2021/08/25 02:43:59;;;;;;;0.40;0.20;;;11.40;1.40;;;12.79;100.00;95833.65;646885;216;31467;-71
2021/08/25 02:46:40;;;;;;;0.40;0.20;;;11.30;1.40;;;12.73;100.00;95841.63;645557;212;33418;-70
2021/08/25 02:49:22;;;;;;;0.60;0.60;;;11.20;1.40;;;12.67;100.00;95843.95;645825;216;31486;-70
2021/08/25 02:52:04;;;;;;;0.40;0.20;;;11.20;1.40;;;12.64;100.00;95842.97;646156;212;38745;-71
2021/08/25 02:54:46;;;;;;;0.40;0.20;;;11.20;1.40;;;12.62;100.00;95847.08;645209;216;31512;-71
2021/08/25 02:57:27;;;;;;;0.40;0.20;;;11.10;1.40;;;12.53;100.00;95850.44;642664;215;31551;-70
2021/08/25 03:00:11;;;;;;;0.40;0.20;;;11.10;1.40;;;12.53;100.00;95849.18;618812;222;37163;-70
2021/08/25 03:02:52;;;;;;;0.40;0.20;;;11.00;1.40;;;12.55;100.00;95852.34;645841;213;32191;-71
2021/08/25 03:05:33;;;;;;;0.40;0.20;;;11.00;1.40;;;12.54;100.00;95850.95;647628;216;32951;-71
2021/08/25 03:09:18;;;;;;;0.40;0.30;;;10.90;1.40;;;12.44;100.00;95845.67;645715;212;31500;-72
2021/08/25 03:12:03;;;;;;;0.40;0.20;;;10.90;1.40;;;12.43;100.00;95851.29;617353;222;31815;-71
2021/08/25 03:14:44;;;;;;;0.40;0.20;;;10.90;1.40;;;12.35;100.00;95844.58;646342;212;31472;-72
2021/08/25 03:17:26;;;;;;;0.40;0.30;;;10.80;1.40;;;12.21;100.00;95845.88;645575;216;31503;-71
2021/08/25 03:20:11;;;;;;;0.60;0.30;;;10.70;1.40;;;12.15;100.00;95840.19;647817;212;31594;-71
2021/08/25 03:22:53;;;;;;;0.40;0.20;;;10.70;1.40;;;12.08;100.00;95842.94;646065;212;31527;-70
2021/08/25 03:25:35;;;;;;;0.40;0.40;;;10.60;1.40;;;11.96;100.00;95840.61;645606;216;31509;-71
2021/08/25 03:28:16;;;;;;;0.40;0.20;;;10.60;1.40;;;11.92;100.00;95840.55;646052;212;31518;-71
2021/08/25 03:30:58;;;;;;;0.40;0.20;;;10.60;1.40;;;11.88;100.00;95837.34;646659;216;31500;-72
2021/08/25 03:35:51;;;;;;;0.40;0.40;;;10.50;1.40;;;11.87;100.00;95840.68;647267;216;31479;-71
2021/08/25 03:38:33;;;;;;;0.70;0.70;;;10.40;1.40;;;11.92;100.00;95840.97;646619;216;31784;-71
2021/08/25 03:41:15;;;;;;;0.40;0.30;;;10.40;1.40;;;11.72;100.00;95839.98;638836;212;31683;-71
2021/08/25 03:43:56;;;;;;;0.40;0.30;;;10.30;1.40;;;11.60;100.00;95837.14;646648;216;31516;-70
2021/08/25 03:46:41;;;;;;;0.40;0.30;;;10.20;1.40;;;11.60;100.00;95834.75;646360;212;43459;-70
2021/08/25 03:49:23;;;;;;;0.40;0.30;;;10.20;1.40;;;11.62;100.00;95831.94;646441;216;31502;-71
2021/08/25 03:52:04;;;;;;;0.40;0.30;;;10.10;1.40;;;11.52;100.00;95830.05;646201;216;42755;-72
2021/08/25 03:54:49;;;;;;;0.40;0.20;;;10.00;1.40;;;11.53;100.00;95828.95;617384;225;42528;-70
2021/08/25 03:57:31;;;;;;;0.47;0.27;;;10.10;1.40;;;11.52;100.00;95827.70;645085;216;31567;-70
2021/08/25 04:00:16;;;;;;;0.40;0.20;;;10.10;1.40;;;11.40;100.00;95823.42;617977;225;31922;-71
2021/08/25 04:02:58;;;;;;;0.40;0.30;;;10.10;1.40;;;11.40;100.00;95818.60;647498;216;31507;-71
2021/08/25 04:05:42;;;;;;;0.40;0.20;;;10.00;1.40;;;11.32;100.00;95816.60;618661;226;31941;-71
2021/08/25 04:08:26;;;;;;;0.40;0.30;;;9.90;1.40;;;11.38;100.00;95817.98;646367;216;42123;-71
2021/08/25 04:11:08;;;;;;;0.40;0.20;;;10.00;1.40;;;11.41;100.00;95814.23;618376;226;31921;-70
2021/08/25 04:13:49;;;;;;;0.40;0.20;;;10.10;1.40;;;11.35;100.00;95811.41;645846;216;32727;-72
2021/08/25 04:16:31;;;;;;;0.40;0.30;;;10.10;1.40;;;11.43;100.00;95814.89;647217;216;31493;-70
2021/08/25 04:19:16;;;;;;;0.40;0.20;;;10.10;1.40;;;11.55;100.00;95811.70;646546;213;42683;-72
2021/08/25 04:21:57;;;;;;;0.40;0.20;;;10.10;1.40;;;11.40;100.00;95810.95;646120;216;31498;-71
2021/08/25 04:24:39;;;;;;;0.40;0.20;;;10.00;1.40;;;11.45;100.00;95810.36;645993;212;32132;-71
2021/08/25 04:27:23;;;;;;;0.40;0.37;;;10.00;1.40;;;11.41;100.00;95814.78;646661;216;31986;-71
2021/08/25 04:30:03;;;;;;;0.40;0.20;;;9.90;1.40;;;11.34;100.00;95818.22;645672;212;31745;-71
2021/08/25 04:32:44;;;;;;;0.40;0.20;;;9.90;1.40;;;11.26;100.00;95809.92;646349;216;31849;-70
2021/08/25 04:36:33;;;;;;;0.40;0.30;;;9.80;1.40;;;11.15;100.00;95806.46;646135;212;31513;-70
2021/08/25 04:39:15;;;;;;;0.40;0.20;;;9.70;1.40;;;11.13;100.00;95809.97;646245;212;42139;-72
2021/08/25 04:41:57;;;;;;;0.40;0.20;;;9.70;1.40;;;11.11;100.00;95811.87;634681;212;42587;-72
2021/08/25 04:44:38;;;;;;;0.40;0.20;;;9.70;1.40;;;11.12;100.00;95812.39;645237;216;31487;-72
2021/08/25 04:47:20;;;;;;;0.40;0.20;;;9.70;1.40;;;11.27;100.00;95820.23;645627;212;42125;-70
2021/08/25 04:52:36;;;;;;;0.40;0.22;;;9.70;1.40;;;11.26;100.00;95815.95;646136;216;31479;-70
2021/08/25 04:55:18;;;;;;;0.40;0.40;;;9.70;1.40;;;11.26;100.00;95812.70;646917;216;42166;-71
2021/08/25 04:58:02;;;;;;;0.40;0.20;;;9.70;1.40;;;11.22;100.00;95809.03;645765;212;43343;-72
2021/08/25 05:00:46;;;;;;;0.40;0.30;;;9.70;1.40;;;11.16;100.00;95805.12;645246;212;42710;-71
2021/08/25 05:03:26;;;;;;;0.50;0.30;;;9.70;1.40;;;11.16;100.00;95809.14;645826;216;42703;-71
2021/08/25 05:08:42;;;;;;;0.40;0.20;;;9.90;1.40;;;11.39;100.00;95806.61;645882;216;31489;-71
2021/08/25 05:11:24;;;;;;;0.40;0.30;;;10.00;1.40;;;11.42;100.00;95805.69;646781;212;31488;-71
2021/08/25 05:14:05;;;;;;;0.70;0.30;;;10.00;1.40;;;11.46;100.00;95803.39;645160;216;31515;-71
2021/08/25 05:16:47;;;;;;;0.40;0.20;;;10.00;1.40;;;11.63;100.00;95803.84;646547;212;31504;-71
2021/08/25 05:19:29;;;;;;;0.40;0.20;;;10.20;1.40;;;11.63;100.00;95805.64;646084;212;37850;-70
2021/08/25 05:22:10;;;;;;;0.40;0.30;;;10.20;1.40;;;11.69;100.00;95808.28;647111;212;31581;-70
2021/08/25 05:24:52;;;;;;;0.40;0.20;;;10.30;1.40;;;11.76;100.00;95809.80;645893;216;31511;-71
2021/08/25 05:27:34;;;;;;;0.40;0.20;;;10.30;1.40;;;11.80;100.00;95813.22;619142;226;31833;-71
2021/08/25 05:30:15;;;;;;;0.40;0.40;;;10.40;1.40;;;11.82;100.00;95813.34;645959;216;31594;-72
2021/08/25 05:32:57;;;;;;;0.40;0.20;;;10.40;1.40;;;11.90;100.00;95815.34;646292;212;31501;-71
2021/08/25 05:38:37;;;;;;;0.40;0.40;;;10.60;1.40;;;12.12;100.00;95813.23;645779;216;38159;-71
2021/08/25 05:42:29;;;;;;;0.40;0.30;;;10.70;1.40;;;12.17;100.00;95820.03;645881;212;31492;-70
2021/08/25 05:45:14;;;;;;;0.40;0.20;;;10.70;1.40;;;12.30;100.00;95820.98;646592;216;31530;-71
2021/08/25 05:47:57;;;;;;;0.40;0.20;;;10.80;1.40;;;12.30;100.00;95821.73;645861;216;31505;-71
2021/08/25 05:50:37;;;;;;;0.40;0.20;;;10.90;1.40;;;12.32;100.00;95812.98;647332;216;31520;-71
2021/08/25 05:54:36;;;;;;;0.40;0.22;;;11.00;1.40;;;12.48;100.00;95809.88;645561;212;42177;-70
2021/08/25 05:57:18;;;;;;;0.40;0.30;;;11.00;1.40;;;12.57;100.00;95808.83;619907;225;31831;-71
2021/08/25 05:59:59;;;;;;;0.40;0.30;;;11.10;1.40;;;12.70;100.00;95810.85;645770;216;31518;-70
2021/08/25 06:02:41;;;;;;;0.40;0.20;;;11.20;1.40;;;12.76;100.00;95814.83;646036;216;31496;-72
2021/08/25 06:05:24;;;;;;;0.40;0.30;;;11.30;1.40;;;13.00;100.00;95809.95;646204;212;31529;-70
2021/08/25 06:08:05;;;;;;;0.40;0.20;;;11.40;1.40;;;13.08;100.00;95816.91;645422;216;31496;-70
2021/08/25 06:10:47;;;;;;;0.40;0.20;;;11.60;1.40;;;13.19;100.00;95816.17;646118;216;31853;-71
2021/08/25 06:13:29;;;;;;;0.55;0.22;;;11.70;1.40;;;13.23;100.00;95812.84;647015;216;32166;-71
2021/08/25 06:16:11;;;;;;;0.40;0.20;;;11.80;1.40;;;13.22;100.00;95815.80;646174;212;31536;-71
2021/08/25 06:18:52;;;;;;;0.40;0.20;;;12.10;1.40;;;13.56;100.00;95813.75;645785;215;38414;-70
2021/08/25 06:21:34;;;;;;;0.40;0.20;;;12.30;1.40;;;13.74;100.00;95809.81;646442;216;31524;-71
2021/08/25 06:24:16;;;;;;;0.50;0.40;;;12.50;1.40;;;13.72;100.00;95813.12;645991;212;42638;-71
2021/08/25 06:26:57;;;;;;;0.40;0.20;;;12.70;1.40;;;13.91;100.00;95815.67;617704;226;43545;-70
2021/08/25 06:29:39;;;;;;;0.40;0.20;;;12.80;1.40;;;13.86;100.00;95819.52;647297;216;42648;-71
2021/08/25 06:32:21;;;;;;;0.40;0.20;;;13.00;1.40;;;14.04;100.00;95822.36;647153;216;42121;-70
2021/08/25 06:35:57;;;;;;;0.40;0.30;;;13.10;1.40;;;14.26;100.00;95820.20;630879;221;31620;-72
2021/08/25 06:38:39;;;;;;;0.40;0.30;;;13.20;1.40;;;14.41;100.00;95816.00;647981;216;31482;-70
2021/08/25 06:41:20;;;;;;;0.40;0.20;;;13.30;1.40;;;14.54;100.00;95817.66;646098;212;31480;-71
2021/08/25 06:44:02;;;;;;;0.40;0.30;;;13.30;1.40;;;14.37;100.00;95821.47;646713;216;31527;-71
2021/08/25 06:46:43;;;;;;;0.40;0.20;;;13.30;1.40;;;14.34;100.00;95819.65;646472;213;31468;-71
2021/08/25 06:49:25;;;;;;;0.40;0.20;;;13.40;1.40;;;14.47;100.00;95817.43;646027;216;31485;-72
2021/08/25 06:52:07;;;;;;;0.40;0.30;;;13.50;1.40;;;14.52;100.00;95811.89;645220;213;31486;-71
2021/08/25 06:54:49;;;;;;;0.40;0.40;;;13.60;1.40;;;14.49;100.00;95806.34;646668;216;31479;-70
2021/08/25 06:57:30;;;;;;;0.40;0.20;;;13.50;1.40;;;14.26;100.00;95807.93;646369;216;31466;-70
2021/08/25 07:00:12;;;;;;;0.40;0.20;;;13.30;1.40;;;14.43;100.00;95801.59;645494;216;31555;-70
2021/08/25 07:02:54;;;;;;;0.40;0.20;;;13.60;1.40;;;14.71;100.00;95797.95;645433;216;31577;-71
2021/08/25 07:05:39;;;;;;;0.40;0.30;;;13.80;1.40;;;14.67;100.00;95799.48;617142;222;31975;-70
2021/08/25 07:08:26;;;;;;;0.40;0.20;;;13.90;1.40;;;14.97;100.00;95796.41;645016;212;31599;-69
2021/08/25 07:11:08;;;;;;;0.40;0.30;;;14.10;1.40;;;14.91;100.00;95793.00;646427;216;31517;-69
2021/08/25 07:13:50;;;;;;;0.60;0.60;;;14.10;1.40;;;15.08;100.00;95790.92;646541;212;31520;-70
2021/08/25 07:16:34;;;;;;;0.40;0.20;;;14.30;1.40;;;15.20;100.00;95790.81;646999;216;31498;-69
2021/08/25 07:19:16;;;;;;;0.40;0.20;;;14.30;1.40;;;15.38;100.00;95786.52;645064;212;31508;-69
2021/08/25 07:21:58;;;;;;;0.40;0.20;;;14.40;1.40;;;15.18;99.75;95791.23;645798;212;31485;-69
2021/08/25 07:24:44;;;;;;;0.40;0.20;;;14.30;1.40;;;15.43;100.00;95795.99;600770;233;32262;-69
2021/08/25 07:27:26;;;;;;;0.40;0.20;;;14.50;1.40;;;15.71;100.00;95796.33;646096;216;31721;-70
2021/08/25 07:30:09;;;;;;;0.40;0.20;;;14.70;1.40;;;15.73;100.00;95795.59;645918;216;31645;-69
2021/08/25 07:32:54;;;;;;;0.40;0.20;;;14.70;1.40;;;16.01;100.00;95791.16;619367;226;32335;-69
2021/08/25 07:35:51;;;;;;;0.40;0.20;;;14.90;1.40;;;16.03;98.05;95788.03;645537;212;31520;-69
2021/08/25 07:38:33;;;;;;;0.40;0.20;;;15.10;1.40;;;15.95;93.64;95786.34;646503;216;31461;-70
2021/08/25 07:41:15;;;;;;;0.40;0.20;;;15.10;1.40;;;16.00;98.12;95787.74;637754;216;31641;-69
2021/08/25 07:43:56;;;;;;;0.40;0.20;;;15.00;1.40;;;16.32;95.28;95786.05;645701;212;31470;-69
2021/08/25 07:46:38;;;;;;;0.50;0.30;;;15.40;1.40;;;16.46;94.22;95784.27;646184;212;31484;-68
2021/08/25 07:49:19;;;;;;;0.40;0.20;;;15.50;1.40;;;16.75;93.63;95786.98;646516;216;31501;-70
2021/08/25 07:52:03;;;;;;;0.40;0.20;;;15.70;1.40;;;16.57;87.80;95792.05;644745;216;31466;-69
2021/08/25 07:54:43;;;;;;;0.40;0.20;;;15.60;1.40;;;16.07;88.78;95793.88;646376;212;31446;-69
2021/08/25 07:57:26;;;;;;;0.40;0.20;;;15.30;1.40;;;16.46;93.85;95790.19;646263;216;31615;-70
2021/08/25 08:00:10;;;;;;;0.40;0.25;;;15.60;1.40;;;16.81;90.14;95792.51;647701;212;31885;-71
2021/08/25 08:02:52;;;;;;;0.40;0.20;;;15.70;1.40;;;16.39;85.58;95782.72;647230;212;31464;-71
2021/08/25 08:05:33;;;;;;;0.40;0.20;;;15.50;1.40;;;16.47;87.14;95788.23;645812;216;31473;-70
2021/08/25 08:08:15;;;;;;;0.40;0.20;;;15.70;1.40;;;16.70;87.03;95786.58;646188;212;31485;-70
2021/08/25 08:10:57;;;;;;;0.40;0.20;;;15.90;1.40;;;17.28;90.47;95787.47;646938;216;31446;-72
2021/08/25 08:13:38;;;;;;;0.40;0.30;;;16.40;1.40;;;17.49;87.09;95792.53;647234;212;31475;-72
2021/08/25 08:17:40;;;;;;;0.40;0.20;;;16.50;1.40;;;17.48;85.81;95795.06;646789;216;31482;-71
2021/08/25 08:20:20;;;;;;;0.40;0.30;;;16.60;1.40;;;17.71;84.50;95796.46;645182;216;31487;-70
2021/08/25 08:23:02;;;;;;;0.40;0.20;;;16.60;1.40;;;17.80;84.65;95795.89;645912;216;31454;-71
2021/08/25 08:28:18;;;;;;;0.40;0.20;;;16.70;1.40;;;18.02;83.44;95805.38;618739;225;31837;-70
2021/08/25 08:31:00;;;;;;;0.40;0.20;;;16.90;1.40;;;17.90;81.72;95797.41;646077;216;31472;-71
2021/08/25 08:35:51;;;;;;;0.40;0.20;;;17.00;1.40;;;18.44;83.71;95797.59;618386;225;32051;-71
2021/08/25 08:38:34;;;;;;;0.40;0.20;;;17.40;1.40;;;18.67;80.52;95798.63;647096;212;31516;-71
2021/08/25 08:41:16;;;;;;;0.80;0.30;;;17.60;1.40;;;18.71;79.96;95799.67;638463;212;31633;-72
2021/08/25 08:44:02;;;;;;;0.40;0.20;;;17.70;1.40;;;18.92;78.11;95797.88;645351;216;31476;-73
2021/08/25 08:46:53;;;;;;;0.40;0.20;;;17.90;1.40;;;19.50;78.24;95799.42;644823;213;42173;-71
2021/08/25 08:49:35;;;;;;;0.40;0.30;;;18.30;1.40;;;18.97;75.72;95798.71;646820;212;31474;-70
2021/08/25 08:52:16;;;;;;;0.40;0.20;;;17.90;1.40;;;18.96;76.02;95796.45;645187;216;31476;-71
2021/08/25 08:55:01;;;;;;;0.40;0.30;;;18.10;1.40;;;18.74;75.73;95796.80;645312;212;42542;-72
2021/08/25 08:57:43;;;;;;;0.40;0.20;;;17.90;1.40;;;19.39;73.95;95795.64;647265;212;31501;-72
2021/08/25 09:00:25;;;;;;;0.40;0.20;;;18.30;1.40;;;19.53;73.58;95798.30;618789;226;31850;-72
2021/08/25 09:03:21;;;;;;;0.40;0.20;;;18.80;1.40;;;20.69;70.29;95792.58;645919;212;42085;-71
2021/08/25 09:06:03;;;;;;;0.40;0.40;;;21.30;1.40;;;21.80;62.78;95794.88;619381;222;32032;-72
2021/08/25 09:08:46;;;;;;;0.50;0.40;;;21.10;1.40;;;21.39;65.11;95792.86;645306;213;32003;-71
2021/08/25 09:11:26;;;;;;;0.50;0.30;;;20.60;1.40;;;22.30;59.86;95787.22;618378;222;32567;-74
2021/08/25 09:14:11;;;;;;;0.40;0.20;;;22.80;1.40;;;23.10;57.17;95793.59;645837;216;32097;-73
2021/08/25 09:17:02;;;;;;;0.40;0.20;;;23.40;1.40;;;23.81;53.56;95791.44;643226;216;31728;-73
2021/08/25 09:19:50;;;;;;;0.45;0.37;;;24.20;1.40;;;24.64;55.78;95779.74;646421;216;31468;-71
2021/08/25 09:22:31;;;;;;;0.40;0.20;;;24.80;1.40;;;26.01;48.32;95776.80;647044;212;31456;-71
2021/08/25 09:25:26;;;;;;;0.40;0.20;;;24.70;1.40;;;26.36;49.06;95780.23;647678;216;31609;-72
2021/08/25 09:28:07;;;;;;;0.50;0.37;;;24.80;1.40;;;27.40;48.67;95778.45;645558;212;31614;-72
2021/08/25 09:31:03;;;;;;;0.60;0.37;;;25.80;1.40;;;27.43;53.22;95770.34;646173;212;31515;-71
2021/08/25 09:35:52;;;;;;;0.40;0.20;;;24.50;1.40;;;28.62;41.96;95768.63;645834;216;31973;-72
2021/08/25 09:38:33;;;;;;;0.50;0.40;;;26.10;1.40;;;29.39;41.30;95765.61;646624;212;31602;-72
2021/08/25 09:41:17;;;;;;;0.50;0.40;;;25.30;1.40;;;25.61;46.03;95775.95;638810;216;42518;-73
2021/08/25 09:44:19;;;;;;;0.40;0.20;;;21.60;1.40;;;27.64;45.35;95769.77;646170;216;31994;-71
2021/08/25 09:47:01;;;;;;;0.40;0.30;;;23.90;1.40;;;27.20;48.30;95765.84;645429;216;31940;-72
2021/08/25 09:49:43;;;;;;;0.60;0.40;;;21.90;1.40;;;25.84;46.97;95769.15;646310;212;31588;-71
2021/08/25 09:52:34;;;;;;;0.50;0.30;;;24.70;1.40;;;25.40;47.02;95765.16;645721;212;31470;-71
2021/08/25 09:55:15;;;;;;;0.30;0.20;;;25.00;1.40;;;29.14;45.46;95752.21;645445;212;31617;-71
2021/08/25 09:57:57;;;;;;;0.40;0.20;;;27.10;1.40;;;27.83;40.25;95760.38;646626;216;31596;-71
2021/08/25 10:00:38;;;;;;;0.50;0.30;;;24.50;1.40;;;26.93;42.86;95755.60;645812;216;31952;-72
2021/08/25 10:03:20;;;;;;;0.40;0.20;;;23.70;1.40;;;29.13;44.16;95751.20;647205;216;31501;-72
2021/08/25 10:06:04;;;;;;;0.40;0.20;;;26.10;1.40;;;30.02;36.84;95747.30;645763;216;42936;-72
2021/08/25 10:08:46;;;;;;;0.40;0.30;;;27.00;1.40;;;26.81;43.10;95749.33;644898;216;31609;-72
2021/08/25 10:11:29;;;;;;;0.60;0.30;;;25.40;1.40;;;26.15;44.84;95748.84;646482;212;32090;-72
2021/08/25 10:14:11;;;;;;;0.40;0.20;;;24.70;1.40;;;29.10;40.61;95738.20;647431;216;31744;-72
2021/08/25 10:16:56;;;;;;;0.40;0.30;;;25.90;1.40;;;29.76;39.32;95737.47;645943;216;31608;-71
2021/08/25 10:19:38;;;;;;;0.40;0.30;;;26.80;1.40;;;29.18;36.51;95732.59;646063;212;31629;-72
2021/08/25 10:22:26;;;;;;;0.40;0.20;;;24.80;1.40;;;28.75;42.00;95735.74;618598;222;42607;-72
2021/08/25 10:25:08;;;;;;;0.40;0.20;;;24.90;1.40;;;32.08;35.74;95727.94;645186;212;42789;-72
2021/08/25 10:28:00;;;;;;;0.40;0.40;;;27.70;1.40;;;31.90;36.11;95718.75;619985;223;32132;-72
2021/08/25 10:31:00;;;;;;;0.40;0.30;;;27.70;1.40;;;31.30;36.87;95716.42;646766;212;31717;-72
2021/08/25 10:35:51;;;;;;;0.50;0.40;;;27.80;1.40;;;29.76;35.93;95715.46;618751;226;32793;-72
2021/08/25 10:38:32;;;;;;;0.40;0.20;;;26.90;1.40;;;27.24;40.34;95716.23;646923;212;31604;-72
2021/08/25 10:41:20;;;;;;;0.50;0.30;;;24.20;1.40;;;29.75;39.87;95708.82;637488;212;32214;-72
2021/08/25 10:44:02;;;;;;;0.70;0.20;;;26.50;1.40;;;32.77;34.02;95705.91;617990;222;32257;-72
2021/08/25 10:46:47;;;;;;;0.40;0.30;;;27.10;1.40;;;34.16;34.39;95697.81;645522;216;35723;-72
2021/08/25 10:52:29;;;;;;;0.40;0.20;;;27.90;1.40;;;31.42;33.24;95701.31;646497;212;31615;-72
2021/08/25 10:55:10;;;;;;;0.40;0.30;;;27.50;1.40;;;29.89;33.92;95694.44;646035;212;31541;-72
2021/08/25 10:57:52;;;;;;;0.50;0.30;;;23.40;1.40;;;28.30;38.05;95697.05;645485;212;31511;-72
2021/08/25 11:00:34;;;;;;;0.40;0.30;;;24.10;1.40;;;30.25;38.54;95683.62;645238;212;31527;-72
2021/08/25 11:03:15;;;;;;;0.60;0.40;;;26.50;1.40;;;31.80;33.99;95678.16;646330;212;31618;-72
2021/08/25 11:05:57;;;;;;;0.40;0.30;;;27.00;1.40;;;28.85;35.82;95677.12;646481;216;31619;-72
2021/08/25 11:08:39;;;;;;;0.40;0.20;;;25.60;1.40;;;32.58;35.91;95669.69;646592;216;31650;-72
2021/08/25 11:11:20;;;;;;;0.40;0.40;;;27.30;1.40;;;31.87;34.16;95669.52;646329;212;31526;-72
2021/08/25 11:14:02;;;;;;;0.40;0.30;;;27.20;1.40;;;31.10;36.98;95663.13;645222;212;31510;-72
2021/08/25 11:16:44;;;;;;;0.40;0.30;;;27.20;1.40;;;31.74;34.99;95665.28;645856;216;31494;-72
2021/08/25 11:19:25;;;;;;;0.50;0.30;;;27.50;1.40;;;33.92;30.97;95663.77;646226;212;31503;-72
2021/08/25 11:22:07;;;;;;;0.40;0.30;;;27.60;1.40;;;31.93;34.39;95667.09;646928;212;31499;-72
2021/08/25 11:24:50;;;;;;;0.40;0.30;;;27.10;1.40;;;30.28;36.04;95659.08;647183;213;42086;-72
2021/08/25 11:27:32;;;;;;;0.40;0.28;;;26.50;1.40;;;33.65;33.63;95656.87;646560;216;31522;-73
2021/08/25 11:30:21;;;;;;;0.40;0.25;;;28.20;1.40;;;33.73;33.26;95652.93;645206;216;31640;-72
2021/08/25 11:35:53;;;;;;;0.50;0.40;;;25.90;1.40;;;33.31;31.31;95653.67;645625;212;31586;-72
2021/08/25 11:38:33;;;;;;;0.40;0.30;;;27.10;1.40;;;34.40;28.89;95647.19;647178;212;31634;-72
2021/08/25 11:41:16;;;;;;;0.50;0.30;;;27.70;1.40;;;35.77;29.11;95636.05;646804;216;31520;-73
2021/08/25 11:43:58;;;;;;;0.40;0.20;;;28.40;1.40;;;34.38;28.58;95635.93;644747;213;31506;-72
2021/08/25 11:46:40;;;;;;;0.40;0.20;;;28.50;1.40;;;34.44;31.32;95628.95;619329;222;42652;-71
2021/08/25 11:49:22;;;;;;;0.50;0.32;;;28.40;1.40;;;34.01;30.37;95635.06;646542;212;42459;-72
2021/08/25 11:52:03;;;;;;;0.40;0.20;;;28.10;1.40;;;34.20;30.98;95632.56;646578;216;33879;-72
2021/08/25 11:54:45;;;;;;;0.40;0.20;;;28.00;1.40;;;35.03;29.74;95633.44;646882;216;31540;-72
2021/08/25 12:00:17;;;;;;;0.40;0.37;;;27.30;1.40;;;34.66;30.08;95633.71;645665;212;32184;-72
2021/08/25 12:02:59;;;;;;;0.50;0.20;;;27.80;1.40;;;35.52;30.07;95633.31;646531;213;31552;-72
2021/08/25 12:05:41;;;;;;;0.40;0.40;;;28.20;1.40;;;34.28;28.42;95633.74;646663;216;31533;-72
2021/08/25 12:08:23;;;;;;;0.40;0.20;;;28.00;1.40;;;35.49;29.84;95630.12;646719;216;31483;-73
2021/08/25 12:11:04;;;;;;;0.50;0.30;;;28.20;1.40;;;33.10;29.89;95629.96;646473;216;31617;-72
2021/08/25 12:13:46;;;;;;;0.50;0.30;;;27.50;1.40;;;35.44;28.09;95630.14;647233;212;32339;-72
2021/08/25 12:16:34;;;;;;;0.40;0.30;;;28.00;1.40;;;37.80;26.71;95621.22;645865;216;31536;-74
2021/08/25 12:19:15;;;;;;;0.40;0.20;;;28.90;1.40;;;36.02;28.85;95622.05;645252;212;42149;-73